createdAt,value
2018-11-07T00:02:14.819Z,3.72
2018-11-07T00:04:43.150Z,4.10
2018-11-07T00:07:11.526Z,4.25
2018-11-07T00:09:39.877Z,4.20
2018-11-07T00:12:08.436Z,4.25
2018-11-07T00:14:36.879Z,4.30
2018-11-07T00:17:05.546Z,3.87
2018-11-07T00:19:33.994Z,3.98
2018-11-07T00:22:02.422Z,4.28
2018-11-07T00:24:30.846Z,4.05
2018-11-07T00:26:59.226Z,3.58
2018-11-07T00:29:28.514Z,4.00
2018-11-07T00:31:57.098Z,3.80
2018-11-07T00:34:25.736Z,4.20
2018-11-07T00:36:54.104Z,3.95
2018-11-07T00:39:22.556Z,3.80
2018-11-07T00:41:50.950Z,4.00
2018-11-07T00:44:19.422Z,4.00
2018-11-07T00:46:47.804Z,3.42
2018-11-07T00:49:16.364Z,3.77
2018-11-07T00:51:44.897Z,4.00
2018-11-07T00:54:13.378Z,3.85
2018-11-07T00:56:42.444Z,3.90
2018-11-07T00:59:10.949Z,3.50
2018-11-07T01:01:39.332Z,3.72
2018-11-07T01:04:07.821Z,3.55
2018-11-07T01:06:36.325Z,3.30
2018-11-07T01:09:06.342Z,3.47
2018-11-07T01:11:34.721Z,3.45
2018-11-07T01:14:03.148Z,3.30
2018-11-07T01:16:31.870Z,3.58
2018-11-07T01:19:00.335Z,3.47
2018-11-07T01:21:28.708Z,3.50
2018-11-07T01:23:57.057Z,3.27
2018-11-07T01:26:25.500Z,3.37
2018-11-07T01:28:53.919Z,3.45
2018-11-07T01:31:22.301Z,3.17
2018-11-07T01:33:51.435Z,3.17
2018-11-07T01:36:19.825Z,3.25
2018-11-07T01:38:48.295Z,3.25
2018-11-07T01:41:16.678Z,3.17
2018-11-07T01:43:45.029Z,3.20
2018-11-07T01:46:13.418Z,3.02
2018-11-07T01:48:42.545Z,3.02
2018-11-07T01:51:11.050Z,3.15
2018-11-07T01:53:39.349Z,3.00
2018-11-07T01:56:07.872Z,3.00
2018-11-07T01:58:36.283Z,2.90
2018-11-07T02:01:05.344Z,2.72
2018-11-07T02:03:33.825Z,3.02
2018-11-07T02:06:02.266Z,2.80
2018-11-07T02:08:31.594Z,2.72
2018-11-07T02:11:00.946Z,2.60
2018-11-07T02:13:29.690Z,2.80
2018-11-07T02:15:58.477Z,2.50
2018-11-07T02:18:26.943Z,2.70
2018-11-07T02:20:55.252Z,2.75
2018-11-07T02:23:24.158Z,2.52
2018-11-07T02:25:52.530Z,2.45
2018-11-07T02:28:20.914Z,2.40
2018-11-07T02:30:49.469Z,2.67
2018-11-07T02:33:17.949Z,2.25
2018-11-07T02:35:46.345Z,2.25
2018-11-07T02:38:14.756Z,2.67
2018-11-07T02:40:43.088Z,2.70
2018-11-07T02:43:11.466Z,2.67
2018-11-07T02:45:39.854Z,2.15
2018-11-07T02:48:08.190Z,2.47
2018-11-07T02:50:36.690Z,2.22
2018-11-07T02:53:05.272Z,2.42
2018-11-07T02:55:34.304Z,2.10
2018-11-07T02:58:02.664Z,2.33
2018-11-07T03:00:31.025Z,2.17
2018-11-07T03:02:59.530Z,1.90
2018-11-07T03:05:27.930Z,2.22
2018-11-07T03:07:56.272Z,2.08
2018-11-07T03:10:24.810Z,2.12
2018-11-07T03:12:53.254Z,2.30
2018-11-07T03:15:21.625Z,1.90
2018-11-07T03:17:49.975Z,2.05
2018-11-07T03:20:18.455Z,1.90
2018-11-07T03:22:47.403Z,2.00
2018-11-07T03:25:16.363Z,1.72
2018-11-07T03:27:45.179Z,1.82
2018-11-07T03:30:13.615Z,1.98
2018-11-07T03:32:41.932Z,2.00
2018-11-07T03:35:15.683Z,1.90
2018-11-07T03:37:44.471Z,2.00
2018-11-07T03:40:13.093Z,1.85
2018-11-07T03:42:41.541Z,2.15
2018-11-07T03:45:09.965Z,1.90
2018-11-07T03:47:38.315Z,1.80
2018-11-07T03:50:06.709Z,2.10
2018-11-07T03:52:35.271Z,2.02
2018-11-07T03:55:04.282Z,1.47
2018-11-07T03:57:32.597Z,1.67
2018-11-07T04:00:00.977Z,1.92
2018-11-07T04:02:29.319Z,1.95
2018-11-07T04:04:57.693Z,1.60
2018-11-07T04:07:26.851Z,1.65
2018-11-07T04:09:55.195Z,1.77
2018-11-07T04:12:24.137Z,1.70
2018-11-07T04:14:52.601Z,1.75
2018-11-07T04:17:20.997Z,1.50
2018-11-07T04:19:49.403Z,1.80
2018-11-07T04:22:17.778Z,1.72
2018-11-07T04:24:46.147Z,1.62
2018-11-07T04:27:14.916Z,1.60
2018-11-07T04:29:43.298Z,1.70
2018-11-07T04:32:11.759Z,1.52
2018-11-07T04:34:40.102Z,1.40
2018-11-07T04:37:08.514Z,1.40
2018-11-07T04:39:36.992Z,1.50
2018-11-07T04:42:05.388Z,1.30
2018-11-07T04:44:34.478Z,1.57
2018-11-07T04:47:03.048Z,1.55
2018-11-07T04:49:31.424Z,1.25
2018-11-07T04:51:59.914Z,1.55
2018-11-07T04:54:28.310Z,1.27
2018-11-07T04:56:56.702Z,1.20
2018-11-07T04:59:25.176Z,1.40
2018-11-07T05:01:53.509Z,1.25
2018-11-07T05:04:21.930Z,1.42
2018-11-07T05:06:50.283Z,1.30
2018-11-07T05:09:18.645Z,1.20
2018-11-07T05:11:47.748Z,1.32
2018-11-07T05:14:16.232Z,1.30
2018-11-07T05:16:45.332Z,1.30
2018-11-07T05:19:13.746Z,1.10
2018-11-07T05:21:42.305Z,1.15
2018-11-07T05:24:10.670Z,0.95
2018-11-07T05:26:39.038Z,1.17
2018-11-07T05:29:08.656Z,1.37
2018-11-07T05:31:37.007Z,1.27
2018-11-07T05:34:05.426Z,1.30
2018-11-07T05:36:33.795Z,1.30
2018-11-07T05:39:04.257Z,1.20
2018-11-07T05:41:33.321Z,1.20
2018-11-07T05:44:01.672Z,1.37
2018-11-07T05:46:30.237Z,1.30
2018-11-07T05:48:58.713Z,1.27
2018-11-07T05:51:28.076Z,1.20
2018-11-07T05:53:56.975Z,0.93
2018-11-07T05:56:25.413Z,1.30
2018-11-07T05:58:53.765Z,1.20
2018-11-07T06:01:22.371Z,1.37
2018-11-07T06:03:50.769Z,1.17
2018-11-07T06:06:19.233Z,1.37
2018-11-07T06:08:47.594Z,1.45
2018-11-07T06:11:15.971Z,1.32
2018-11-07T06:13:44.309Z,1.32
2018-11-07T06:16:12.905Z,1.50
2018-11-07T06:18:41.583Z,1.57
2018-11-07T06:21:10.043Z,2.42
2018-11-07T06:23:38.432Z,1.50
2018-11-07T06:26:06.775Z,1.40
2018-11-07T06:28:35.148Z,1.60
2018-11-07T06:31:03.511Z,1.55
2018-11-07T06:33:31.889Z,1.40
2018-11-07T06:36:00.935Z,1.62
2018-11-07T06:38:30.017Z,2.37
2018-11-07T06:40:58.477Z,1.42
2018-11-07T06:43:27.431Z,2.42
2018-11-07T06:45:55.865Z,1.65
2018-11-07T06:48:24.206Z,1.77
2018-11-07T06:50:52.573Z,1.80
2018-11-07T06:53:21.078Z,2.87
2018-11-07T06:55:49.606Z,2.22
2018-11-07T06:58:18.650Z,2.58
2018-11-07T07:00:47.020Z,2.15
2018-11-07T07:03:15.353Z,1.55
2018-11-07T07:05:43.716Z,1.72
2018-11-07T07:08:12.037Z,2.00
2018-11-07T07:10:40.391Z,1.90
2018-11-07T07:13:08.803Z,2.05
2018-11-07T07:15:37.169Z,2.00
2018-11-07T07:18:06.042Z,1.50
2018-11-07T07:20:34.410Z,2.00
2018-11-07T07:23:02.855Z,1.50
2018-11-07T07:25:31.493Z,1.42
2018-11-07T07:27:59.846Z,1.80
2018-11-07T07:30:28.224Z,1.40
2018-11-07T07:32:56.688Z,1.75
2018-11-07T07:35:25.178Z,1.65
2018-11-07T07:37:53.618Z,1.55
2018-11-07T07:40:21.966Z,1.50
2018-11-07T07:42:50.369Z,1.32
2018-11-07T07:45:20.077Z,1.30
2018-11-07T07:47:48.418Z,1.72
2018-11-07T07:50:18.114Z,1.40
2018-11-07T07:52:46.772Z,1.30
2018-11-07T07:55:15.233Z,1.52
2018-11-07T07:57:43.944Z,1.82
2018-11-07T08:00:14.704Z,1.52
2018-11-07T08:02:45.454Z,1.35
2018-11-07T08:05:14.092Z,1.70
2018-11-07T08:07:42.942Z,1.60
2018-11-07T08:10:13.169Z,1.57
2018-11-07T08:12:42.102Z,1.90
2018-11-07T08:15:11.006Z,1.60
2018-11-07T08:17:40.959Z,1.67
2018-11-07T08:20:10.324Z,1.77
2018-11-07T08:22:38.702Z,1.75
2018-11-07T08:25:07.160Z,1.60
2018-11-07T08:27:36.217Z,1.72
2018-11-07T08:30:06.140Z,1.72
2018-11-07T08:32:34.496Z,1.47
2018-11-07T08:35:02.896Z,2.08
2018-11-07T08:37:31.961Z,1.70
2018-11-07T08:40:00.356Z,1.75
2018-11-07T08:42:28.914Z,1.80
2018-11-07T08:44:57.897Z,1.87
2018-11-07T08:47:26.301Z,1.82
2018-11-07T08:49:54.695Z,1.40
2018-11-07T08:52:23.109Z,1.65
2018-11-07T08:54:52.074Z,1.70
2018-11-07T08:57:20.393Z,1.70
2018-11-07T08:59:48.805Z,1.50
2018-11-07T09:02:17.915Z,1.40
2018-11-07T09:04:46.280Z,1.87
2018-11-07T09:07:14.664Z,1.65
2018-11-07T09:09:42.997Z,1.45
2018-11-07T09:12:11.439Z,1.50
2018-11-07T09:14:39.729Z,1.60
2018-11-07T09:17:08.458Z,1.30
2018-11-07T09:19:36.888Z,1.40
2018-11-07T09:22:06.651Z,1.20
2018-11-07T09:24:35.111Z,1.57
2018-11-07T09:27:04.435Z,1.65
2018-11-07T09:29:32.783Z,1.30
2018-11-07T09:32:01.295Z,1.47
2018-11-07T09:34:30.395Z,1.60
2018-11-07T09:36:58.854Z,1.42
2018-11-07T09:39:27.248Z,1.70
2018-11-07T09:41:55.675Z,1.30
2018-11-07T09:44:24.192Z,1.25
2018-11-07T09:46:52.562Z,1.70
2018-11-07T09:49:21.014Z,1.37
2018-11-07T09:51:49.526Z,1.67
2018-11-07T09:54:17.963Z,1.40
2018-11-07T09:56:46.357Z,1.17
2018-11-07T09:59:14.755Z,1.30
2018-11-07T10:01:43.220Z,1.35
2018-11-07T10:04:11.600Z,1.35
2018-11-07T10:06:41.073Z,1.32
2018-11-07T10:09:10.758Z,1.42
2018-11-07T10:11:39.295Z,1.27
2018-11-07T10:14:08.134Z,1.37
2018-11-07T10:16:37.570Z,1.50
2018-11-07T10:19:07.755Z,1.30
2018-11-07T10:21:36.214Z,1.10
2018-11-07T10:24:05.331Z,1.55
2018-11-07T10:26:33.727Z,1.27
2018-11-07T10:29:02.306Z,1.15
2018-11-07T10:31:30.397Z,1.40
2018-11-07T10:33:58.890Z,1.00
2018-11-07T10:36:27.802Z,1.55
2018-11-07T10:38:56.319Z,1.20
2018-11-07T10:41:24.940Z,1.50
2018-11-07T10:43:53.339Z,1.45
2018-11-07T10:46:22.242Z,1.30
2018-11-07T10:48:50.606Z,1.27
2018-11-07T10:51:19.405Z,1.50
2018-11-07T10:53:48.451Z,1.10
2018-11-07T10:56:16.907Z,1.22
2018-11-07T10:58:45.264Z,0.98
2018-11-07T11:01:19.751Z,1.15
2018-11-07T11:03:48.113Z,1.07
2018-11-07T11:06:17.255Z,1.10
2018-11-07T11:08:46.365Z,1.27
2018-11-07T11:11:14.754Z,1.60
2018-11-07T11:13:43.671Z,1.40
2018-11-07T11:16:12.013Z,1.22
2018-11-07T11:18:41.579Z,1.77
2018-11-07T11:21:10.528Z,1.87
2018-11-07T11:23:38.905Z,1.47
2018-11-07T11:26:07.267Z,1.72
2018-11-07T11:28:35.696Z,1.57
2018-11-07T11:31:04.150Z,1.95
2018-11-07T11:33:32.543Z,1.72
2018-11-07T11:36:00.893Z,2.22
2018-11-07T11:38:29.309Z,1.75
2018-11-07T11:40:57.729Z,2.00
2018-11-07T11:43:26.114Z,1.90
2018-11-07T11:45:54.462Z,1.92
2018-11-07T11:48:22.951Z,2.20
2018-11-07T11:50:51.314Z,2.15
2018-11-07T11:53:19.680Z,1.90
2018-11-07T11:55:48.150Z,2.00
2018-11-07T11:58:16.696Z,1.87
2018-11-07T12:00:45.694Z,1.90
2018-11-07T12:03:14.669Z,1.95
2018-11-07T12:05:43.102Z,2.10
2018-11-07T12:08:11.715Z,1.72
2018-11-07T12:10:39.968Z,1.80
2018-11-07T12:13:08.428Z,1.67
2018-11-07T12:15:36.740Z,1.52
2018-11-07T12:18:05.556Z,1.92
2018-11-07T12:20:33.906Z,1.77
2018-11-07T12:23:02.268Z,1.57
2018-11-07T12:25:30.644Z,1.67
2018-11-07T12:27:59.145Z,1.72
2018-11-07T12:30:27.528Z,1.90
2018-11-07T12:32:55.974Z,1.87
2018-11-07T12:35:24.506Z,1.65
2018-11-07T12:37:52.972Z,1.72
2018-11-07T12:40:21.389Z,2.00
2018-11-07T12:42:49.844Z,1.75
2018-11-07T12:45:18.547Z,1.80
2018-11-07T12:47:46.936Z,1.77
2018-11-07T12:50:18.210Z,1.70
2018-11-07T12:52:46.827Z,1.75
2018-11-07T12:55:22.284Z,1.80
2018-11-07T12:57:50.872Z,1.77
2018-11-07T13:00:21.496Z,1.60
2018-11-07T13:02:49.844Z,1.95
2018-11-07T13:05:19.807Z,1.70
2018-11-07T13:07:48.844Z,1.80
2018-11-07T13:10:19.259Z,1.60
2018-11-07T13:12:48.784Z,1.55
2018-11-07T13:15:17.483Z,1.72
2018-11-07T13:17:46.667Z,1.60
2018-11-07T13:20:17.324Z,1.62
2018-11-07T13:22:47.001Z,1.50
2018-11-07T13:25:16.009Z,1.50
2018-11-07T13:27:44.359Z,1.67
2018-11-07T13:30:15.245Z,1.70
2018-11-07T13:32:43.631Z,1.20
2018-11-07T13:35:13.031Z,1.50
2018-11-07T13:37:42.546Z,1.80
2018-11-07T13:40:14.290Z,1.70
2018-11-07T13:42:43.402Z,1.17
2018-11-07T13:45:14.005Z,1.20
2018-11-07T13:47:44.107Z,1.47
2018-11-07T13:50:13.609Z,1.15
2018-11-07T13:52:42.033Z,1.30
2018-11-07T13:55:11.544Z,1.30
2018-11-07T13:57:41.649Z,1.20
2018-11-07T14:00:13.386Z,1.40
2018-11-07T14:02:41.759Z,1.40
2018-11-07T14:05:11.007Z,1.15
2018-11-07T14:07:40.607Z,1.30
2018-11-07T14:10:21.297Z,1.42
2018-11-07T14:12:50.009Z,1.30
2018-11-07T14:15:18.523Z,1.07
2018-11-07T14:17:47.177Z,1.25
2018-11-07T14:20:15.555Z,1.37
2018-11-07T14:22:44.127Z,1.27
2018-11-07T14:25:13.139Z,1.10
2018-11-07T14:27:41.844Z,1.25
2018-11-07T14:30:12.862Z,0.90
2018-11-07T14:32:45.869Z,1.30
2018-11-07T14:35:14.398Z,1.15
2018-11-07T14:37:42.789Z,1.10
2018-11-07T14:40:11.512Z,1.10
2018-11-07T14:42:40.358Z,1.27
2018-11-07T14:45:10.197Z,1.10
2018-11-07T14:47:38.993Z,0.95
2018-11-07T14:50:08.914Z,1.12
2018-11-07T14:52:37.451Z,1.10
2018-11-07T14:55:06.600Z,1.10
2018-11-07T14:57:35.986Z,1.05
2018-11-07T15:00:05.785Z,1.25
2018-11-07T15:02:34.251Z,1.20
2018-11-07T15:05:02.909Z,1.20
2018-11-07T15:07:31.314Z,0.93
2018-11-07T15:10:00.292Z,1.02
2018-11-07T15:12:28.642Z,1.00
2018-11-07T15:14:57.060Z,0.90
2018-11-07T15:17:25.541Z,1.10
2018-11-07T15:19:54.536Z,1.02
2018-11-07T15:22:22.945Z,1.10
2018-11-07T15:24:51.325Z,0.90
2018-11-07T15:27:19.784Z,0.80
2018-11-07T15:29:48.150Z,0.93
2018-11-07T15:32:16.525Z,0.80
2018-11-07T15:34:44.942Z,1.10
2018-11-07T15:37:13.294Z,0.85
2018-11-07T15:39:41.798Z,1.07
2018-11-07T15:42:10.176Z,1.10
2018-11-07T15:44:38.580Z,1.10
2018-11-07T15:47:06.986Z,0.95
2018-11-07T15:49:39.864Z,0.90
2018-11-07T15:52:08.281Z,1.20
2018-11-07T15:54:37.388Z,1.15
2018-11-07T15:57:06.822Z,1.07
2018-11-07T15:59:35.150Z,1.10
2018-11-07T16:02:03.516Z,0.80
2018-11-07T16:04:32.019Z,1.00
2018-11-07T16:07:00.607Z,1.02
2018-11-07T16:09:29.029Z,1.00
2018-11-07T16:11:58.603Z,1.17
2018-11-07T16:14:27.092Z,1.00
2018-11-07T16:16:55.455Z,1.12
2018-11-07T16:19:23.941Z,1.05
2018-11-07T16:21:52.345Z,1.10
2018-11-07T16:24:20.686Z,0.90
2018-11-07T16:26:49.075Z,0.82
2018-11-07T16:29:17.638Z,1.00
2018-11-07T16:31:45.999Z,0.90
2018-11-07T16:34:14.816Z,0.70
2018-11-07T16:36:43.244Z,1.22
2018-11-07T16:39:12.167Z,1.17
2018-11-07T16:41:40.650Z,0.93
2018-11-07T16:44:08.940Z,1.00
2018-11-07T16:46:37.371Z,0.90
2018-11-07T16:49:06.513Z,1.05
2018-11-07T16:51:34.916Z,0.98
2018-11-07T16:54:03.450Z,1.20
2018-11-07T16:56:31.831Z,0.72
2018-11-07T16:59:00.264Z,0.90
2018-11-07T17:01:29.376Z,1.00
2018-11-07T17:03:57.781Z,0.80
2018-11-07T17:06:26.314Z,1.20
2018-11-07T17:08:55.132Z,1.22
2018-11-07T17:11:23.543Z,0.93
2018-11-07T17:13:51.915Z,0.88
2018-11-07T17:16:20.422Z,0.80
2018-11-07T17:18:49.318Z,1.02
2018-11-07T17:21:17.728Z,0.70
2018-11-07T17:23:46.857Z,0.98
2018-11-07T17:26:15.200Z,1.15
2018-11-07T17:28:43.624Z,0.90
2018-11-07T17:31:12.068Z,1.12
2018-11-07T17:33:41.263Z,0.95
2018-11-07T17:36:10.085Z,1.05
2018-11-07T17:38:43.023Z,1.20
2018-11-07T17:41:11.442Z,1.37
2018-11-07T17:43:39.970Z,1.42
2018-11-07T17:46:08.435Z,1.40
2018-11-07T17:48:37.015Z,1.05
2018-11-07T17:51:05.673Z,1.50
2018-11-07T17:53:34.208Z,1.25
2018-11-07T17:56:02.637Z,1.25
2018-11-07T17:58:31.120Z,1.60
2018-11-07T18:00:59.964Z,1.15
2018-11-07T18:03:28.822Z,1.40
2018-11-07T18:05:57.198Z,1.00
2018-11-07T18:08:25.526Z,1.15
2018-11-07T18:10:54.446Z,1.67
2018-11-07T18:13:22.790Z,1.20
2018-11-07T18:15:51.218Z,1.40
2018-11-07T18:18:19.629Z,1.60
2018-11-07T18:20:48.003Z,1.30
2018-11-07T18:23:16.511Z,1.20
2018-11-07T18:25:44.922Z,1.45
2018-11-07T18:28:13.347Z,1.35
2018-11-07T18:30:42.458Z,1.47
2018-11-07T18:33:10.882Z,1.55
2018-11-07T18:35:39.778Z,2.10
2018-11-07T18:38:08.359Z,2.20
2018-11-07T18:40:36.742Z,2.20
2018-11-07T18:43:05.486Z,2.83
2018-11-07T18:45:33.744Z,2.10
2018-11-07T18:48:02.124Z,2.30
2018-11-07T18:50:30.538Z,2.60
2018-11-07T18:52:59.033Z,2.42
2018-11-07T18:55:27.354Z,2.60
2018-11-07T18:57:55.799Z,2.30
2018-11-07T19:00:24.780Z,2.12
2018-11-07T19:02:53.377Z,2.65
2018-11-07T19:05:21.811Z,2.27
2018-11-07T19:07:50.209Z,2.80
2018-11-07T19:10:20.798Z,2.08
2018-11-07T19:12:50.037Z,2.12
2018-11-07T19:15:18.789Z,2.12
2018-11-07T19:17:48.150Z,2.55
2018-11-07T19:20:17.339Z,2.55
2018-11-07T19:22:45.886Z,2.52
2018-11-07T19:25:18.981Z,2.55
2018-11-07T19:27:47.335Z,2.35
2018-11-07T19:30:22.747Z,2.37
2018-11-07T19:32:52.250Z,1.70
2018-11-07T19:35:21.650Z,2.00
2018-11-07T19:37:50.725Z,1.82
2018-11-07T19:40:20.734Z,2.00
2018-11-07T19:42:49.080Z,2.00
2018-11-07T19:45:18.594Z,2.52
2018-11-07T19:47:47.187Z,1.92
2018-11-07T19:50:16.819Z,2.45
2018-11-07T19:52:46.324Z,1.82
2018-11-07T19:55:16.763Z,1.52
2018-11-07T19:57:47.058Z,1.90
2018-11-07T20:00:16.499Z,1.85
2018-11-07T20:02:45.898Z,1.95
2018-11-07T20:05:15.254Z,1.82
2018-11-07T20:07:43.631Z,1.40
2018-11-07T20:10:14.418Z,1.55
2018-11-07T20:12:42.919Z,2.05
2018-11-07T20:15:12.593Z,1.67
2018-11-07T20:17:40.969Z,1.12
2018-11-07T20:20:09.801Z,1.80
2018-11-07T20:22:38.199Z,1.62
2018-11-07T20:25:07.832Z,1.47
2018-11-07T20:27:36.355Z,1.82
2018-11-07T20:30:06.761Z,1.47
2018-11-07T20:32:35.093Z,1.80
2018-11-07T20:35:03.515Z,1.55
2018-11-07T20:37:32.407Z,1.57
2018-11-07T20:40:00.940Z,1.37
2018-11-07T20:42:29.364Z,1.60
2018-11-07T20:44:58.724Z,1.77
2018-11-07T20:47:27.256Z,1.67
2018-11-07T20:49:55.645Z,1.47
2018-11-07T20:52:24.063Z,1.55
2018-11-07T20:54:52.699Z,2.08
2018-11-07T20:57:21.012Z,1.60
2018-11-07T20:59:49.488Z,1.20
2018-11-07T21:02:17.918Z,1.37
2018-11-07T21:04:46.400Z,1.37
2018-11-07T21:07:14.781Z,1.62
2018-11-07T21:09:43.322Z,1.32
2018-11-07T21:12:14.027Z,1.45
2018-11-07T21:14:42.414Z,1.72
2018-11-07T21:17:10.833Z,1.70
2018-11-07T21:19:39.225Z,1.40
2018-11-07T21:22:09.531Z,1.45
2018-11-07T21:24:37.972Z,1.45
2018-11-07T21:27:06.806Z,1.22
2018-11-07T21:29:35.596Z,1.40
2018-11-07T21:32:04.312Z,1.50
2018-11-07T21:34:32.791Z,1.50
2018-11-07T21:37:01.815Z,1.55
2018-11-07T21:39:30.404Z,1.22
2018-11-07T21:41:59.607Z,1.32
2018-11-07T21:44:30.172Z,1.40
2018-11-07T21:46:59.302Z,1.75
2018-11-07T21:49:28.880Z,1.67
2018-11-07T21:51:58.147Z,1.60
2018-11-07T21:54:27.407Z,1.37
2018-11-07T21:56:56.621Z,1.50
2018-11-07T21:59:25.086Z,1.55
2018-11-07T22:01:53.453Z,1.32
2018-11-07T22:04:21.869Z,1.50
2018-11-07T22:06:50.325Z,1.45
2018-11-07T22:09:18.725Z,1.50
2018-11-07T22:11:47.052Z,1.60
2018-11-07T22:14:15.465Z,1.50
2018-11-07T22:16:44.452Z,1.50
2018-11-07T22:19:12.925Z,1.50
2018-11-07T22:21:41.313Z,1.40
2018-11-07T22:24:09.805Z,1.40
2018-11-07T22:26:38.038Z,1.62
2018-11-07T22:29:06.426Z,1.40
2018-11-07T22:31:34.865Z,1.20
2018-11-07T22:34:03.742Z,1.47
2018-11-07T22:36:32.097Z,1.25
2018-11-07T22:39:00.457Z,1.40
2018-11-07T22:41:28.851Z,1.40
2018-11-07T22:43:57.937Z,1.20
2018-11-07T22:46:27.023Z,1.20
2018-11-07T22:48:55.361Z,1.50
2018-11-07T22:51:25.633Z,1.40
2018-11-07T22:53:54.190Z,1.07
2018-11-07T22:56:23.507Z,1.10
2018-11-07T22:58:51.994Z,1.30
2018-11-07T23:01:21.483Z,1.27
2018-11-07T23:03:51.272Z,1.27
2018-11-07T23:06:19.691Z,1.20
2018-11-07T23:08:48.699Z,1.20
2018-11-07T23:11:17.073Z,1.20
2018-11-07T23:13:45.541Z,1.37
2018-11-07T23:16:14.069Z,1.20
2018-11-07T23:18:42.817Z,1.20
2018-11-07T23:21:11.269Z,1.00
2018-11-07T23:23:39.632Z,1.15
2018-11-07T23:26:08.541Z,1.27
2018-11-07T23:28:36.890Z,1.25
2018-11-07T23:31:05.434Z,1.27
2018-11-07T23:33:34.495Z,0.93
2018-11-07T23:36:03.011Z,1.42
2018-11-07T23:38:31.352Z,1.17
2018-11-07T23:41:00.333Z,1.30
2018-11-07T23:43:28.924Z,1.17
2018-11-07T23:45:57.301Z,1.00
2018-11-07T23:48:25.778Z,1.30
2018-11-07T23:50:54.138Z,1.42
2018-11-07T23:53:22.555Z,1.10
2018-11-07T23:55:51.534Z,1.15
2018-11-07T23:58:19.910Z,1.15
